createdAt,value
2022-12-28T00:01:23.341Z,4.12
2022-12-28T00:03:50.905Z,4.12
2022-12-28T00:06:19.449Z,4.08
2022-12-28T00:08:46.907Z,4.08
2022-12-28T00:11:26.633Z,4.02
2022-12-28T00:13:59.267Z,3.99
2022-12-28T00:16:33.218Z,4.01
2022-12-28T00:19:02.408Z,4.10
2022-12-28T00:21:30.020Z,4.08
2022-12-28T00:23:58.597Z,4.12
2022-12-28T00:26:27.617Z,4.13
2022-12-28T00:28:59.908Z,4.10
2022-12-28T00:31:30.830Z,4.16
2022-12-28T00:33:58.095Z,4.17
2022-12-28T00:37:09.378Z,4.25
2022-12-28T00:39:12.563Z,4.23
2022-12-28T00:41:39.725Z,4.20
2022-12-28T00:44:06.993Z,4.25
2022-12-28T00:46:34.149Z,4.27
2022-12-28T00:49:01.335Z,4.25
2022-12-28T00:51:28.496Z,4.27
2022-12-28T00:53:55.731Z,4.32
2022-12-28T00:56:23.496Z,4.33
2022-12-28T00:58:50.862Z,4.31
2022-12-28T01:01:20.919Z,4.30
2022-12-28T01:03:48.762Z,4.27
2022-12-28T01:06:18.852Z,4.33
2022-12-28T01:08:46.026Z,4.33
2022-12-28T01:11:17.597Z,4.32
2022-12-28T01:13:45.023Z,4.27
2022-12-28T01:16:17.634Z,4.21
2022-12-28T01:18:45.841Z,4.12
2022-12-28T01:21:15.513Z,4.11
2022-12-28T01:23:43.461Z,4.03
2022-12-28T01:26:10.628Z,4.02
2022-12-28T01:28:37.868Z,3.91
2022-12-28T01:31:06.949Z,3.85
2022-12-28T01:33:34.196Z,3.80
2022-12-28T01:36:07.158Z,3.74
2022-12-28T01:38:34.847Z,3.68
2022-12-28T01:41:02.568Z,3.72
2022-12-28T01:43:44.044Z,3.70
2022-12-28T01:46:17.537Z,3.67
2022-12-28T01:49:02.864Z,3.63
2022-12-28T01:51:39.439Z,3.61
2022-12-28T01:54:06.702Z,3.57
2022-12-28T01:56:33.961Z,3.53
2022-12-28T01:59:01.260Z,3.49
2022-12-28T02:01:28.644Z,3.52
2022-12-28T02:03:56.040Z,3.56
2022-12-28T02:06:23.328Z,3.54
2022-12-28T02:08:58.872Z,3.52
2022-12-28T02:11:26.163Z,3.56
2022-12-28T02:13:53.756Z,3.50
2022-12-28T02:16:21.090Z,3.52
2022-12-28T02:18:48.664Z,3.56
2022-12-28T02:21:46.268Z,3.62
2022-12-28T02:24:47.540Z,3.59
2022-12-28T02:27:30.664Z,3.52
2022-12-28T02:30:08.083Z,3.48
2022-12-28T02:32:54.421Z,3.45
2022-12-28T02:35:30.055Z,3.48
2022-12-28T02:38:02.108Z,3.52
2022-12-28T02:40:35.116Z,3.47
2022-12-28T02:43:03.267Z,3.44
2022-12-28T02:46:03.723Z,3.44
2022-12-28T02:49:04.746Z,3.37
2022-12-28T02:52:23.690Z,3.31
2022-12-28T02:55:28.380Z,3.33
2022-12-28T02:58:23.528Z,3.32
2022-12-28T03:01:15.533Z,3.38
2022-12-28T03:04:03.399Z,3.36
2022-12-28T03:07:02.855Z,3.37
2022-12-28T03:09:51.814Z,3.34
2022-12-28T03:12:53.630Z,3.34
2022-12-28T03:15:31.330Z,3.38
2022-12-28T03:18:23.651Z,3.33
2022-12-28T03:21:10.486Z,3.31
2022-12-28T03:23:57.845Z,3.36
2022-12-28T03:26:43.611Z,3.35
2022-12-28T03:29:31.890Z,3.32
2022-12-28T03:31:59.183Z,3.25
2022-12-28T03:34:26.459Z,3.26
2022-12-28T03:37:25.666Z,3.27
2022-12-28T03:40:03.861Z,3.23
2022-12-28T03:42:57.277Z,3.17
2022-12-28T03:45:46.547Z,3.19
2022-12-28T03:48:16.325Z,3.22
2022-12-28T03:50:46.282Z,3.22
2022-12-28T03:53:13.481Z,3.20
2022-12-28T03:55:40.753Z,3.17
2022-12-28T03:58:07.957Z,3.13
2022-12-28T04:00:35.141Z,3.13
2022-12-28T04:03:02.332Z,3.15
2022-12-28T04:05:29.552Z,3.14
2022-12-28T04:07:56.694Z,3.15
2022-12-28T04:10:23.886Z,3.13
2022-12-28T04:12:56.687Z,3.06
2022-12-28T04:15:23.972Z,3.11
2022-12-28T04:17:51.144Z,3.10
2022-12-28T04:20:18.316Z,3.14
2022-12-28T04:22:45.554Z,3.07
2022-12-28T04:25:12.868Z,3.11
2022-12-28T04:27:40.075Z,3.10
2022-12-28T04:30:07.797Z,3.08
2022-12-28T04:32:35.653Z,3.05
2022-12-28T04:35:02.815Z,3.08
2022-12-28T04:37:30.034Z,3.15
2022-12-28T04:39:57.592Z,3.12
2022-12-28T04:42:27.735Z,3.10
2022-12-28T04:44:54.979Z,3.19
2022-12-28T04:47:22.210Z,3.23
2022-12-28T04:49:50.392Z,3.19
2022-12-28T04:52:17.583Z,3.29
2022-12-28T04:54:44.758Z,3.24
2022-12-28T04:57:11.919Z,3.19
2022-12-28T04:59:40.427Z,3.15
2022-12-28T05:02:07.997Z,3.23
2022-12-28T05:04:35.213Z,3.19
2022-12-28T05:07:02.398Z,3.20
2022-12-28T05:09:29.579Z,3.21
2022-12-28T05:11:56.748Z,3.23
2022-12-28T05:14:23.927Z,3.25
2022-12-28T05:16:52.359Z,3.30
2022-12-28T05:19:19.564Z,3.37
2022-12-28T05:21:46.730Z,3.40
2022-12-28T05:24:13.950Z,3.44
2022-12-28T05:26:41.142Z,3.37
2022-12-28T05:29:08.326Z,3.40
2022-12-28T05:31:35.698Z,3.46
2022-12-28T05:34:02.931Z,3.59
2022-12-28T05:36:30.143Z,3.62
2022-12-28T05:38:57.623Z,3.59
2022-12-28T05:41:27.208Z,3.56
2022-12-28T05:43:55.036Z,3.63
2022-12-28T05:46:25.664Z,3.69
2022-12-28T05:48:55.045Z,3.70
2022-12-28T05:51:23.085Z,3.66
2022-12-28T05:53:50.620Z,3.68
2022-12-28T05:56:20.072Z,3.68
2022-12-28T05:58:47.832Z,3.66
2022-12-28T06:01:20.928Z,3.63
2022-12-28T06:03:52.207Z,3.65
2022-12-28T06:06:20.411Z,3.70
2022-12-28T06:08:48.495Z,3.74
2022-12-28T06:11:18.096Z,3.83
2022-12-28T06:13:45.797Z,3.85
2022-12-28T06:16:19.392Z,3.89
2022-12-28T06:18:47.367Z,3.86
2022-12-28T06:21:28.339Z,3.99
2022-12-28T06:23:59.357Z,3.96
2022-12-28T06:26:28.363Z,3.94
2022-12-28T06:28:55.618Z,3.92
2022-12-28T06:31:24.580Z,3.95
2022-12-28T06:33:57.169Z,3.97
2022-12-28T06:36:32.761Z,4.01
2022-12-28T06:39:01.287Z,4.02
2022-12-28T06:41:29.475Z,3.96
2022-12-28T06:43:57.459Z,3.97
2022-12-28T06:46:26.137Z,3.91
2022-12-28T06:48:53.354Z,3.97
2022-12-28T06:51:26.194Z,3.93
2022-12-28T06:53:53.859Z,3.92
2022-12-28T06:56:23.758Z,3.88
2022-12-28T06:58:56.892Z,3.84
2022-12-28T07:01:30.809Z,3.75
2022-12-28T07:03:59.239Z,3.80
2022-12-28T07:06:28.508Z,3.83
2022-12-28T07:08:59.958Z,3.80
2022-12-28T07:11:27.641Z,3.81
2022-12-28T07:13:54.804Z,3.82
2022-12-28T07:16:23.252Z,3.84
2022-12-28T07:18:50.908Z,3.90
2022-12-28T07:21:23.578Z,3.90
2022-12-28T07:23:52.130Z,3.90
2022-12-28T07:26:21.113Z,3.92
2022-12-28T07:28:49.781Z,3.95
2022-12-28T07:31:23.052Z,4.01
2022-12-28T07:33:51.385Z,4.01
2022-12-28T07:36:20.327Z,4.01
2022-12-28T07:38:48.328Z,3.98
2022-12-28T07:41:18.170Z,4.07
2022-12-28T07:43:45.417Z,4.02
2022-12-28T07:46:14.666Z,4.00
2022-12-28T07:48:42.910Z,4.03
2022-12-28T07:51:17.953Z,4.06
2022-12-28T07:53:47.572Z,4.16
2022-12-28T07:56:15.558Z,4.17
2022-12-28T08:01:15.225Z,4.14
2022-12-28T08:03:44.701Z,4.16
2022-12-28T08:06:19.325Z,4.21
2022-12-28T08:08:49.355Z,4.31
2022-12-28T08:11:18.748Z,4.32
2022-12-28T08:13:46.382Z,4.30
2022-12-28T08:16:15.498Z,4.32
2022-12-28T08:18:42.833Z,4.30
2022-12-28T08:21:19.875Z,4.31
2022-12-28T08:23:47.868Z,4.37
2022-12-28T08:26:17.048Z,4.38
2022-12-28T08:28:46.407Z,4.39
2022-12-28T08:31:14.813Z,4.40
2022-12-28T08:33:42.666Z,4.42
2022-12-28T08:36:10.340Z,4.46
2022-12-28T08:38:38.686Z,4.48
2022-12-28T08:41:07.560Z,4.51
2022-12-28T08:43:35.336Z,4.57
2022-12-28T08:46:08.453Z,4.65
2022-12-28T08:48:35.753Z,4.75
2022-12-28T08:51:27.323Z,4.84
2022-12-28T08:53:54.599Z,4.86
2022-12-28T08:56:24.241Z,4.89
2022-12-28T08:58:52.082Z,4.86
2022-12-28T09:01:21.915Z,4.93
2022-12-28T09:03:51.313Z,4.97
2022-12-28T09:06:24.477Z,5.02
2022-12-28T09:09:08.770Z,5.01
2022-12-28T09:11:36.938Z,5.08
2022-12-28T09:14:09.297Z,5.13
2022-12-28T09:16:37.858Z,5.13
2022-12-28T09:19:07.219Z,5.21
2022-12-28T09:21:35.545Z,5.22
2022-12-28T09:24:03.244Z,5.19
2022-12-28T09:26:36.371Z,5.20
2022-12-28T09:29:05.517Z,5.31
2022-12-28T09:31:36.914Z,5.32
2022-12-28T09:36:52.760Z,5.32
2022-12-28T09:39:24.425Z,5.42
2022-12-28T09:41:59.200Z,5.51
2022-12-28T09:44:46.821Z,5.59
2022-12-28T09:47:22.627Z,5.59
2022-12-28T09:50:14.421Z,5.64
2022-12-28T09:52:49.826Z,5.66
2022-12-28T09:55:18.597Z,5.70
2022-12-28T09:57:50.068Z,5.72
2022-12-28T10:00:20.567Z,5.80
2022-12-28T10:02:52.006Z,5.92
2022-12-28T10:05:21.275Z,5.94
2022-12-28T10:07:48.620Z,6.00
2022-12-28T10:10:20.766Z,5.97
2022-12-28T10:12:48.260Z,6.05
2022-12-28T10:15:16.484Z,6.13
2022-12-28T10:17:44.523Z,6.16
2022-12-28T10:20:17.140Z,6.18
2022-12-28T10:22:50.002Z,6.21
2022-12-28T10:25:27.317Z,6.28
2022-12-28T10:27:55.711Z,6.32
2022-12-28T10:30:27.438Z,6.39
2022-12-28T10:33:02.940Z,6.46
2022-12-28T10:35:43.148Z,6.51
2022-12-28T10:38:32.172Z,6.51
2022-12-28T10:41:07.818Z,6.48
2022-12-28T10:43:37.292Z,6.52
2022-12-28T10:46:07.535Z,6.54
2022-12-28T10:48:38.148Z,6.71
2022-12-28T10:51:12.753Z,6.73
2022-12-28T10:53:42.706Z,6.79
2022-12-28T10:56:13.326Z,6.88
2022-12-28T10:58:50.639Z,6.92
2022-12-28T11:01:26.904Z,7.03
2022-12-28T11:04:02.087Z,7.09
2022-12-28T11:06:34.321Z,7.11
2022-12-28T11:09:04.154Z,7.20
2022-12-28T11:11:31.705Z,7.22
2022-12-28T11:14:15.426Z,7.26
2022-12-28T11:16:43.221Z,7.28
2022-12-28T11:19:12.687Z,7.27
2022-12-28T11:21:41.101Z,7.30
2022-12-28T11:24:11.854Z,7.36
2022-12-28T11:26:40.833Z,7.38
2022-12-28T11:29:08.965Z,7.45
2022-12-28T11:31:39.691Z,7.38
2022-12-28T11:34:07.614Z,7.34
2022-12-28T11:36:41.023Z,7.31
2022-12-28T11:39:28.094Z,7.27
2022-12-28T11:44:50.831Z,7.21
2022-12-28T11:47:17.922Z,7.18
2022-12-28T11:49:47.268Z,7.16
2022-12-28T11:52:17.480Z,7.11
2022-12-28T11:55:23.311Z,7.17
2022-12-28T11:57:50.679Z,7.27
2022-12-28T12:00:23.078Z,7.36
2022-12-28T12:03:01.517Z,7.49
2022-12-28T12:05:37.894Z,7.54
2022-12-28T12:08:14.207Z,7.50
2022-12-28T12:10:45.377Z,7.50
2022-12-28T12:13:27.938Z,7.47
2022-12-28T12:16:05.318Z,7.51
2022-12-28T12:18:44.392Z,7.55
2022-12-28T12:21:24.105Z,7.63
2022-12-28T12:23:54.210Z,7.72
2022-12-28T12:26:37.827Z,7.87
2022-12-28T12:29:13.621Z,7.96
2022-12-28T12:31:48.884Z,7.92
2022-12-28T12:34:44.334Z,7.94
2022-12-28T12:37:37.009Z,7.86
2022-12-28T12:40:25.291Z,7.84
2022-12-28T12:43:04.396Z,7.91
2022-12-28T12:46:02.483Z,7.98
2022-12-28T12:49:01.246Z,8.10
2022-12-28T12:51:50.784Z,8.16
2022-12-28T12:54:36.593Z,8.14
2022-12-28T12:57:11.201Z,8.17
2022-12-28T13:00:05.789Z,8.16
2022-12-28T13:02:43.996Z,8.21
2022-12-28T13:05:20.462Z,8.18
2022-12-28T13:07:48.172Z,8.09
2022-12-28T13:10:19.839Z,7.92
2022-12-28T13:12:47.028Z,7.94
2022-12-28T13:15:18.339Z,7.88
2022-12-28T13:18:18.081Z,7.87
2022-12-28T13:20:56.842Z,7.82
2022-12-28T13:23:25.196Z,7.80
2022-12-28T13:25:54.838Z,7.86
2022-12-28T13:28:26.873Z,7.80
2022-12-28T13:31:19.058Z,7.80
2022-12-28T13:33:57.218Z,7.80
2022-12-28T13:36:24.410Z,7.80
2022-12-28T13:39:13.530Z,7.81
2022-12-28T13:41:50.783Z,7.83
2022-12-28T13:44:43.009Z,7.86
2022-12-28T13:47:16.627Z,7.76
2022-12-28T13:50:03.978Z,7.78
2022-12-28T13:52:37.883Z,7.68
2022-12-28T13:55:07.839Z,7.63
2022-12-28T13:57:46.330Z,7.57
2022-12-28T14:00:20.404Z,7.46
2022-12-28T14:02:49.624Z,7.50
2022-12-28T14:05:20.136Z,7.41
2022-12-28T14:07:48.127Z,7.39
2022-12-28T14:10:15.552Z,7.35
2022-12-28T14:12:43.170Z,7.32
2022-12-28T14:15:11.077Z,7.28
2022-12-28T14:17:38.848Z,7.31
2022-12-28T14:20:06.636Z,7.43
2022-12-28T14:22:39.052Z,7.34
2022-12-28T14:25:09.604Z,7.31
2022-12-28T14:27:45.495Z,7.39
2022-12-28T14:30:27.659Z,7.48
2022-12-28T14:32:55.251Z,7.55
2022-12-28T14:35:25.026Z,7.62
2022-12-28T14:37:56.654Z,7.60
2022-12-28T14:40:32.721Z,7.65
2022-12-28T14:43:16.503Z,7.64
2022-12-28T14:46:06.991Z,7.58
2022-12-28T14:48:37.225Z,7.55
2022-12-28T14:51:28.771Z,7.51
2022-12-28T14:54:19.770Z,7.45
2022-12-28T14:56:53.974Z,7.42
2022-12-28T14:59:34.399Z,7.40
2022-12-28T15:02:02.029Z,7.36
2022-12-28T15:04:38.551Z,7.32
2022-12-28T15:07:07.453Z,7.30
2022-12-28T15:09:34.878Z,7.17
2022-12-28T15:12:13.381Z,7.23
2022-12-28T15:14:40.973Z,7.32
2022-12-28T15:17:09.158Z,7.39
2022-12-28T15:19:36.716Z,7.43
2022-12-28T15:22:03.950Z,7.42
2022-12-28T15:24:34.248Z,7.43
2022-12-28T15:27:02.836Z,7.40
2022-12-28T15:32:17.331Z,7.47
2022-12-28T15:34:44.497Z,7.52
2022-12-28T15:37:11.649Z,7.55
2022-12-28T15:39:38.882Z,7.53
2022-12-28T15:42:06.130Z,7.58
2022-12-28T15:44:33.431Z,7.68
2022-12-28T15:47:00.668Z,7.67
2022-12-28T15:49:27.881Z,7.70
2022-12-28T15:51:55.177Z,7.69
2022-12-28T15:54:22.334Z,7.61
2022-12-28T15:56:54.049Z,7.61
2022-12-28T15:59:21.495Z,7.58
2022-12-28T16:01:48.945Z,7.53
2022-12-28T16:04:16.338Z,7.62
2022-12-28T16:06:44.864Z,7.52
2022-12-28T16:09:12.871Z,7.49
2022-12-28T16:11:40.462Z,7.48
2022-12-28T16:14:11.622Z,7.62
2022-12-28T16:16:40.272Z,7.59
2022-12-28T16:19:08.813Z,7.66
2022-12-28T16:21:36.299Z,7.62
2022-12-28T16:24:03.750Z,7.70
2022-12-28T16:26:30.899Z,7.75
2022-12-28T16:29:00.262Z,7.69
2022-12-28T16:31:28.272Z,7.63
2022-12-28T16:33:57.671Z,7.68
2022-12-28T16:36:25.310Z,7.63
2022-12-28T16:38:52.909Z,7.60
2022-12-28T16:41:20.315Z,7.60
2022-12-28T16:43:48.261Z,7.69
2022-12-28T16:46:15.561Z,7.66
2022-12-28T16:48:42.951Z,7.63
2022-12-28T16:51:10.406Z,7.60
2022-12-28T16:53:38.084Z,7.58
2022-12-28T16:56:06.824Z,7.56
2022-12-28T16:58:34.266Z,7.48
2022-12-28T17:01:07.594Z,7.49
2022-12-28T17:03:35.493Z,7.44
2022-12-28T17:06:02.884Z,7.42
2022-12-28T17:08:30.080Z,7.40
2022-12-28T17:10:57.367Z,7.46
2022-12-28T17:13:24.529Z,7.50
2022-12-28T17:15:51.790Z,7.50
2022-12-28T17:18:18.940Z,7.43
2022-12-28T17:20:46.161Z,7.44
2022-12-28T17:23:13.686Z,7.46
2022-12-28T17:25:40.860Z,7.50
2022-12-28T17:28:08.062Z,7.49
2022-12-28T17:30:35.245Z,7.48
2022-12-28T17:33:02.396Z,7.54
2022-12-28T17:35:29.625Z,7.59
2022-12-28T17:37:56.775Z,7.56
2022-12-28T17:40:23.955Z,7.60
2022-12-28T17:42:51.124Z,7.63
2022-12-28T17:45:18.326Z,7.61
2022-12-28T17:47:45.578Z,7.66
2022-12-28T17:50:12.741Z,7.70
2022-12-28T17:52:41.733Z,7.65
2022-12-28T17:55:09.314Z,7.64
2022-12-28T17:57:38.795Z,7.62
2022-12-28T18:00:06.636Z,7.59
2022-12-28T18:02:34.086Z,7.66
2022-12-28T18:05:01.389Z,7.64
2022-12-28T18:07:28.581Z,7.62
2022-12-28T18:09:55.833Z,7.66
2022-12-28T18:12:23.015Z,7.69
2022-12-28T18:14:50.328Z,7.66
2022-12-28T18:17:23.099Z,7.67
2022-12-28T18:19:53.395Z,7.68
2022-12-28T18:22:22.934Z,7.68
2022-12-28T18:24:50.628Z,7.69
2022-12-28T18:27:18.343Z,7.72
2022-12-28T18:29:46.049Z,7.70
2022-12-28T18:32:13.208Z,7.65
2022-12-28T18:34:40.448Z,7.72
2022-12-28T18:37:07.801Z,7.76
2022-12-28T18:39:35.078Z,7.63
2022-12-28T18:42:03.539Z,7.68
2022-12-28T18:44:30.758Z,7.64
2022-12-28T18:46:57.995Z,7.62
2022-12-28T18:49:25.182Z,7.58
2022-12-28T18:51:52.367Z,7.59
2022-12-28T18:54:19.562Z,7.53
2022-12-28T18:56:46.787Z,7.56
2022-12-28T18:59:13.991Z,7.56
2022-12-28T19:02:06.544Z,7.45
2022-12-28T19:04:30.034Z,7.38
2022-12-28T19:06:57.396Z,7.37
2022-12-28T19:09:24.581Z,7.34
2022-12-28T19:11:52.803Z,7.32
2022-12-28T19:14:20.023Z,7.31
2022-12-28T19:16:47.232Z,7.29
2022-12-28T19:19:16.867Z,7.27
2022-12-28T19:21:44.642Z,7.25
2022-12-28T19:24:19.443Z,7.27
2022-12-28T19:26:47.279Z,7.32
2022-12-28T19:29:16.308Z,7.23
2022-12-28T19:31:43.733Z,7.22
2022-12-28T19:34:10.981Z,7.28
2022-12-28T19:36:38.239Z,7.33
2022-12-28T19:39:05.406Z,7.32
2022-12-28T19:41:32.609Z,7.31
2022-12-28T19:43:59.858Z,7.24
2022-12-28T19:46:33.486Z,7.22
2022-12-28T19:49:02.186Z,7.28
2022-12-28T19:51:31.722Z,7.19
2022-12-28T19:54:00.081Z,7.20
2022-12-28T19:56:27.431Z,7.22
2022-12-28T19:59:01.133Z,7.28
2022-12-28T20:01:30.606Z,7.33
2022-12-28T20:03:59.414Z,7.32
2022-12-28T20:06:28.693Z,7.31
2022-12-28T20:08:57.822Z,7.29
2022-12-28T20:11:25.020Z,7.23
2022-12-28T20:13:57.416Z,7.17
2022-12-28T20:16:29.585Z,7.12
2022-12-28T20:18:57.066Z,7.07
2022-12-28T20:21:26.192Z,7.05
2022-12-28T20:23:54.704Z,7.03
2022-12-28T20:26:24.879Z,6.97
2022-12-28T20:28:52.881Z,6.99
2022-12-28T20:31:20.568Z,7.01
2022-12-28T20:33:47.957Z,6.98
2022-12-28T20:36:20.493Z,7.00
2022-12-28T20:38:48.117Z,6.99
2022-12-28T20:41:37.122Z,7.03
2022-12-28T20:44:07.368Z,6.97
2022-12-28T20:46:34.718Z,6.95
2022-12-28T20:49:01.966Z,7.00
2022-12-28T20:51:29.145Z,6.95
2022-12-28T20:53:56.422Z,7.00
2022-12-28T20:56:23.707Z,7.03
2022-12-28T20:58:51.348Z,7.05
2022-12-28T21:01:18.717Z,7.08
2022-12-28T21:03:46.450Z,7.05
2022-12-28T21:06:14.142Z,7.13
2022-12-28T21:08:41.445Z,7.15
2022-12-28T21:11:08.622Z,7.06
2022-12-28T21:13:40.722Z,7.14
2022-12-28T21:16:11.564Z,7.11
2022-12-28T21:18:38.965Z,7.11
2022-12-28T21:21:06.425Z,7.10
2022-12-28T21:23:33.961Z,7.10
2022-12-28T21:26:09.948Z,7.05
2022-12-28T21:28:37.159Z,7.10
2022-12-28T21:31:06.098Z,7.10
2022-12-28T21:33:33.725Z,7.15
2022-12-28T21:36:06.017Z,7.11
2022-12-28T21:38:36.267Z,7.14
2022-12-28T21:41:09.531Z,7.15
2022-12-28T21:43:36.848Z,7.15
2022-12-28T21:46:07.674Z,7.18
2022-12-28T21:48:36.477Z,7.21
2022-12-28T21:51:28.219Z,7.23
2022-12-28T21:53:55.697Z,7.19
2022-12-28T21:56:22.924Z,7.17
2022-12-28T21:58:50.317Z,7.18
2022-12-28T22:01:36.748Z,7.21
2022-12-28T22:04:23.085Z,7.27
2022-12-28T22:06:50.277Z,7.29
2022-12-28T22:09:36.130Z,7.30
2022-12-28T22:12:21.917Z,7.29
2022-12-28T22:14:49.080Z,7.31
2022-12-28T22:17:16.633Z,7.31
2022-12-28T22:19:43.806Z,7.35
2022-12-28T22:22:10.984Z,7.34
2022-12-28T22:24:38.177Z,7.41
2022-12-28T22:27:05.358Z,7.42
2022-12-28T22:29:32.699Z,7.46
2022-12-28T22:31:59.921Z,7.47
2022-12-28T22:34:27.102Z,7.49
2022-12-28T22:36:54.259Z,7.51
2022-12-28T22:39:21.766Z,7.54
2022-12-28T22:41:48.958Z,7.52
2022-12-28T22:44:16.148Z,7.49
2022-12-28T22:46:43.302Z,7.46
2022-12-28T22:49:10.520Z,7.45
2022-12-28T22:51:37.710Z,7.46
2022-12-28T22:54:04.931Z,7.48
2022-12-28T22:56:32.105Z,7.43
2022-12-28T22:59:04.264Z,7.42
2022-12-28T23:01:32.185Z,7.44
2022-12-28T23:03:59.414Z,7.43
2022-12-28T23:06:26.623Z,7.42
2022-12-28T23:08:53.855Z,7.40
2022-12-28T23:11:39.653Z,7.40
2022-12-28T23:14:30.420Z,7.39
2022-12-28T23:16:58.189Z,7.40
2022-12-28T23:19:44.170Z,7.35
2022-12-28T23:22:32.899Z,7.37
2022-12-28T23:25:19.130Z,7.35
2022-12-28T23:27:47.035Z,7.34
2022-12-28T23:30:20.611Z,7.29
2022-12-28T23:32:49.193Z,7.27
2022-12-28T23:35:17.838Z,7.23
2022-12-28T23:37:48.242Z,7.27
2022-12-28T23:40:17.585Z,7.22
2022-12-28T23:42:44.729Z,7.20
2022-12-28T23:45:13.963Z,7.22
2022-12-28T23:47:41.715Z,7.21
2022-12-28T23:50:09.421Z,7.25
2022-12-28T23:52:36.627Z,7.28
2022-12-28T23:55:03.988Z,7.26
2022-12-28T23:57:31.159Z,7.27
2022-12-28T23:59:58.379Z,7.27
